createdAt,value
2022-12-03T00:01:21.417Z,72.34
2022-12-03T00:04:23.242Z,68.76
2022-12-03T00:07:25.166Z,70.35
2022-12-03T00:10:27.134Z,71.25
2022-12-03T00:13:28.945Z,66.69
2022-12-03T00:16:30.781Z,69.15
2022-12-03T00:19:32.732Z,70.19
2022-12-03T00:22:34.624Z,71.58
2022-12-03T00:25:36.467Z,70.78
2022-12-03T00:28:38.650Z,72.14
2022-12-03T00:31:42.138Z,68.04
2022-12-03T00:34:44.024Z,73.85
2022-12-03T00:37:45.820Z,70.93
2022-12-03T00:40:47.642Z,72.57
2022-12-03T00:43:49.508Z,75.62
2022-12-03T00:46:51.529Z,71.32
2022-12-03T00:49:53.431Z,71.77
2022-12-03T00:52:55.295Z,71.46
2022-12-03T00:55:57.188Z,71.27
2022-12-03T00:58:58.994Z,71.21
2022-12-03T01:02:00.896Z,68.00
2022-12-03T01:05:02.813Z,68.92
2022-12-03T01:08:04.796Z,71.30
2022-12-03T01:11:26.572Z,73.28
2022-12-03T01:14:28.402Z,70.54
2022-12-03T01:17:30.209Z,69.75
2022-12-03T01:20:32.086Z,72.02
2022-12-03T01:23:33.867Z,73.50
2022-12-03T01:26:35.712Z,68.48
2022-12-03T01:29:37.618Z,68.25
2022-12-03T01:32:39.404Z,73.57
2022-12-03T01:35:41.232Z,69.89
2022-12-03T01:38:43.012Z,71.93
2022-12-03T01:41:44.817Z,68.54
2022-12-03T01:44:46.656Z,71.10
2022-12-03T01:47:48.532Z,70.35
2022-12-03T01:50:50.363Z,69.74
2022-12-03T01:53:52.211Z,70.56
2022-12-03T01:56:54.292Z,69.47
2022-12-03T01:59:56.504Z,72.75
2022-12-03T02:02:59.921Z,70.53
2022-12-03T02:06:01.739Z,72.44
2022-12-03T02:09:03.635Z,71.05
2022-12-03T02:12:05.647Z,70.69
2022-12-03T02:15:07.601Z,72.25
2022-12-03T02:18:09.741Z,74.15
2022-12-03T02:21:17.644Z,74.33
2022-12-03T02:24:38.409Z,70.99
2022-12-03T02:27:40.456Z,74.03
2022-12-03T02:30:42.342Z,74.96
2022-12-03T02:33:44.161Z,72.80
2022-12-03T02:36:45.976Z,74.43
2022-12-03T02:39:48.819Z,74.14
2022-12-03T02:42:51.345Z,73.79
2022-12-03T02:45:53.960Z,72.41
2022-12-03T02:48:55.768Z,72.92
2022-12-03T02:51:57.572Z,74.95
2022-12-03T02:54:59.368Z,71.33
2022-12-03T02:58:01.259Z,72.46
2022-12-03T03:01:03.186Z,72.61
2022-12-03T03:04:05.246Z,72.19
2022-12-03T03:07:07.132Z,73.35
2022-12-03T03:10:09.665Z,70.41
2022-12-03T03:13:12.978Z,75.66
2022-12-03T03:16:14.850Z,74.13
2022-12-03T03:19:16.665Z,71.78
2022-12-03T03:22:18.681Z,71.50
2022-12-03T03:25:24.718Z,72.60
2022-12-03T03:28:26.627Z,71.12
2022-12-03T03:31:28.522Z,74.39
2022-12-03T03:34:31.064Z,72.65
2022-12-03T03:37:32.912Z,71.44
2022-12-03T03:40:34.777Z,70.18
2022-12-03T03:43:36.579Z,71.13
2022-12-03T03:46:38.517Z,70.88
2022-12-03T03:49:40.380Z,70.99
2022-12-03T03:52:42.235Z,71.63
2022-12-03T03:55:44.084Z,70.38
2022-12-03T03:58:45.979Z,69.75
2022-12-03T04:01:47.841Z,68.02
2022-12-03T04:04:49.666Z,73.35
2022-12-03T04:07:51.604Z,71.42
2022-12-03T04:11:12.216Z,70.99
2022-12-03T04:14:14.065Z,70.46
2022-12-03T04:17:15.916Z,70.24
2022-12-03T04:20:17.758Z,70.33
2022-12-03T04:23:19.578Z,70.01
2022-12-03T04:26:40.080Z,68.56
2022-12-03T04:29:41.877Z,67.33
2022-12-03T04:33:02.462Z,68.97
2022-12-03T04:36:04.704Z,72.96
2022-12-03T04:39:06.585Z,69.98
2022-12-03T04:42:08.461Z,69.30
2022-12-03T04:45:10.499Z,72.41
2022-12-03T04:48:12.471Z,69.69
2022-12-03T04:51:14.318Z,68.09
2022-12-03T04:54:16.115Z,67.36
2022-12-03T04:57:17.889Z,66.53
2022-12-03T05:00:19.707Z,65.98
2022-12-03T05:03:21.514Z,66.62
2022-12-03T05:06:23.311Z,64.87
2022-12-03T05:09:25.160Z,65.97
2022-12-03T05:12:27.074Z,66.64
2022-12-03T05:15:28.900Z,68.85
2022-12-03T05:18:30.700Z,69.99
2022-12-03T05:21:32.556Z,69.59
2022-12-03T05:24:34.415Z,67.80
2022-12-03T05:27:36.214Z,68.49
2022-12-03T05:30:38.057Z,66.50
2022-12-03T05:33:44.148Z,69.42
2022-12-03T05:36:46.445Z,67.35
2022-12-03T05:39:48.277Z,70.45
2022-12-03T05:43:01.236Z,73.98
2022-12-03T05:46:03.143Z,71.83
2022-12-03T05:49:05.049Z,71.17
2022-12-03T05:52:06.861Z,71.33
2022-12-03T05:55:08.808Z,72.33
2022-12-03T05:58:11.721Z,72.37
2022-12-03T06:01:13.573Z,70.09
2022-12-03T06:04:15.367Z,68.54
2022-12-03T06:07:17.310Z,68.93
2022-12-03T06:10:20.704Z,67.93
2022-12-03T06:13:22.556Z,65.16
2022-12-03T06:16:24.517Z,65.37
2022-12-03T06:19:26.371Z,66.57
2022-12-03T06:22:28.213Z,69.37
2022-12-03T06:25:29.997Z,68.06
2022-12-03T06:28:31.844Z,69.64
2022-12-03T06:31:33.707Z,67.90
2022-12-03T06:34:35.554Z,68.66
2022-12-03T06:37:37.470Z,70.52
2022-12-03T06:40:39.356Z,73.04
2022-12-03T06:43:41.144Z,71.62
2022-12-03T06:46:43.034Z,69.00
2022-12-03T06:49:44.944Z,67.71
2022-12-03T06:52:46.802Z,65.99
2022-12-03T06:55:48.609Z,69.83
2022-12-03T06:58:50.481Z,72.67
2022-12-03T07:01:52.370Z,72.53
2022-12-03T07:04:54.570Z,70.20
2022-12-03T07:07:57.024Z,71.23
2022-12-03T07:10:58.913Z,69.55
2022-12-03T07:14:05.023Z,66.55
2022-12-03T07:17:07.527Z,69.14
2022-12-03T07:20:09.548Z,67.87
2022-12-03T07:23:11.615Z,67.91
2022-12-03T07:26:13.486Z,67.50
2022-12-03T07:29:15.284Z,66.48
2022-12-03T07:32:17.083Z,64.89
2022-12-03T07:35:18.966Z,67.39
2022-12-03T07:38:20.827Z,70.13
2022-12-03T07:41:22.864Z,67.16
2022-12-03T07:44:24.749Z,65.33
2022-12-03T07:47:26.603Z,68.54
2022-12-03T07:50:28.452Z,70.05
2022-12-03T07:53:30.264Z,66.59
2022-12-03T07:56:32.069Z,65.21
2022-12-03T07:59:33.867Z,68.39
2022-12-03T08:02:36.433Z,69.89
2022-12-03T08:05:38.324Z,62.88
2022-12-03T08:08:40.172Z,62.44
2022-12-03T08:11:42.401Z,64.20
2022-12-03T08:14:44.393Z,65.07
2022-12-03T08:17:47.167Z,64.57
2022-12-03T08:20:49.831Z,65.89
2022-12-03T08:23:51.619Z,68.40
2022-12-03T08:26:53.443Z,69.06
2022-12-03T08:29:55.253Z,67.10
2022-12-03T08:32:57.937Z,67.70
2022-12-03T08:35:59.761Z,72.11
2022-12-03T08:39:04.696Z,67.79
2022-12-03T08:42:30.966Z,65.69
2022-12-03T08:45:39.847Z,66.53
2022-12-03T08:48:47.028Z,67.00
2022-12-03T08:51:53.793Z,66.18
2022-12-03T08:54:56.253Z,65.30
2022-12-03T08:57:58.629Z,65.25
2022-12-03T09:01:03.119Z,62.61
2022-12-03T09:04:15.396Z,62.17
2022-12-03T09:07:17.341Z,62.75
2022-12-03T09:10:19.181Z,59.36
2022-12-03T09:13:21.132Z,64.25
2022-12-03T09:16:23.035Z,62.38
2022-12-03T09:19:25.604Z,59.01
2022-12-03T09:22:27.431Z,62.99
2022-12-03T09:25:29.262Z,63.27
2022-12-03T09:28:31.079Z,59.68
2022-12-03T09:31:34.333Z,59.46
2022-12-03T09:34:36.307Z,59.01
2022-12-03T09:37:38.214Z,64.13
2022-12-03T09:40:40.106Z,62.77
2022-12-03T09:47:04.109Z,59.51
2022-12-03T09:50:06.074Z,59.38
2022-12-03T09:53:09.272Z,60.47
2022-12-03T09:56:13.684Z,58.34
2022-12-03T09:59:15.980Z,59.95
2022-12-03T10:02:17.880Z,61.67
2022-12-03T10:05:20.179Z,61.98
2022-12-03T10:08:22.509Z,59.68
2022-12-03T10:11:25.059Z,57.34
2022-12-03T10:14:26.959Z,58.04
2022-12-03T10:17:28.775Z,57.90
2022-12-03T10:20:30.657Z,57.87
2022-12-03T10:23:32.477Z,53.06
2022-12-03T10:26:43.488Z,51.37
2022-12-03T10:29:46.008Z,55.28
2022-12-03T10:32:49.002Z,57.30
2022-12-03T10:35:50.818Z,50.89
2022-12-03T10:39:14.872Z,52.29
2022-12-03T10:42:18.809Z,50.74
2022-12-03T10:45:22.654Z,51.68
2022-12-03T10:48:30.457Z,55.22
2022-12-03T10:51:32.302Z,52.78
2022-12-03T10:54:34.250Z,54.93
2022-12-03T10:57:36.852Z,52.36
2022-12-03T11:00:39.897Z,52.35
2022-12-03T11:03:41.774Z,48.62
2022-12-03T11:06:43.633Z,48.67
2022-12-03T11:09:46.485Z,50.06
2022-12-03T11:13:07.141Z,55.41
2022-12-03T11:16:08.966Z,55.80
2022-12-03T11:19:13.514Z,53.72
2022-12-03T11:22:15.362Z,50.14
2022-12-03T11:25:29.447Z,49.48
2022-12-03T11:28:31.797Z,49.67
2022-12-03T11:31:38.897Z,48.03
2022-12-03T11:34:41.001Z,47.38
2022-12-03T11:37:42.786Z,48.31
2022-12-03T11:40:59.980Z,48.95
2022-12-03T11:44:04.104Z,47.64
2022-12-03T11:47:08.798Z,47.96
2022-12-03T11:50:20.652Z,47.16
2022-12-03T11:53:23.134Z,46.72
2022-12-03T11:56:25.912Z,49.89
2022-12-03T11:59:27.802Z,46.24
2022-12-03T12:02:29.658Z,47.89
2022-12-03T12:05:32.716Z,46.35
2022-12-03T12:08:35.465Z,47.54
2022-12-03T12:11:38.785Z,46.69
2022-12-03T12:14:40.595Z,45.67
2022-12-03T12:17:42.505Z,45.96
2022-12-03T12:20:44.367Z,44.68
2022-12-03T12:23:46.173Z,44.41
2022-12-03T12:26:51.502Z,44.76
2022-12-03T12:29:54.790Z,45.33
2022-12-03T12:32:56.817Z,48.52
2022-12-03T12:35:58.713Z,47.83
2022-12-03T12:39:00.544Z,49.48
2022-12-03T12:42:02.964Z,51.17
2022-12-03T12:45:15.024Z,49.80
2022-12-03T12:48:16.979Z,47.96
2022-12-03T12:51:18.843Z,48.87
2022-12-03T12:54:20.753Z,51.32
2022-12-03T12:57:23.007Z,50.57
2022-12-03T13:00:24.950Z,53.12
2022-12-03T13:03:28.014Z,52.68
2022-12-03T13:06:30.523Z,52.71
2022-12-03T13:09:32.413Z,52.80
2022-12-03T13:12:34.205Z,52.66
2022-12-03T13:15:49.287Z,56.54
2022-12-03T13:18:55.033Z,55.80
2022-12-03T13:21:57.869Z,58.70
2022-12-03T13:24:59.758Z,58.36
2022-12-03T13:28:01.616Z,55.52
2022-12-03T13:31:15.553Z,54.68
2022-12-03T13:34:25.209Z,59.25
2022-12-03T13:37:27.128Z,55.27
2022-12-03T13:40:34.999Z,56.41
2022-12-03T13:43:44.329Z,56.69
2022-12-03T13:46:47.010Z,55.11
2022-12-03T13:49:51.537Z,54.36
2022-12-03T13:52:53.581Z,56.91
2022-12-03T13:55:57.292Z,55.43
2022-12-03T13:59:00.361Z,55.12
2022-12-03T14:02:02.283Z,55.93
2022-12-03T14:05:04.274Z,57.11
2022-12-03T14:08:06.268Z,57.47
2022-12-03T14:11:08.249Z,56.04
2022-12-03T14:14:10.218Z,54.67
2022-12-03T14:17:12.352Z,54.19
2022-12-03T14:20:15.001Z,55.97
2022-12-03T14:23:16.844Z,56.81
2022-12-03T14:26:18.677Z,58.48
2022-12-03T14:29:20.613Z,56.44
2022-12-03T14:32:22.689Z,54.86
2022-12-03T14:35:24.588Z,54.96
2022-12-03T14:38:26.439Z,54.51
2022-12-03T14:41:47.029Z,55.46
2022-12-03T14:44:49.537Z,57.16
2022-12-03T14:47:51.369Z,59.18
2022-12-03T14:50:53.386Z,59.78
2022-12-03T14:53:55.244Z,58.45
2022-12-03T14:56:57.041Z,59.28
2022-12-03T14:59:58.979Z,57.00
2022-12-03T15:03:00.844Z,59.17
2022-12-03T15:06:02.787Z,56.83
2022-12-03T15:09:04.702Z,57.64
2022-12-03T15:12:06.779Z,58.69
2022-12-03T15:15:09.067Z,57.25
2022-12-03T15:18:10.912Z,58.15
2022-12-03T15:21:12.805Z,57.25
2022-12-03T15:24:14.668Z,60.10
2022-12-03T15:27:16.604Z,57.48
2022-12-03T15:30:20.437Z,58.63
2022-12-03T15:33:22.433Z,59.37
2022-12-03T15:36:24.333Z,59.92
2022-12-03T15:39:26.211Z,59.57
2022-12-03T15:42:29.736Z,57.84
2022-12-03T15:45:31.568Z,58.54
2022-12-03T15:48:34.160Z,59.03
2022-12-03T15:51:36.017Z,60.66
2022-12-03T15:54:37.856Z,60.69
2022-12-03T15:57:39.703Z,61.85
2022-12-03T16:00:41.544Z,60.74
2022-12-03T16:03:43.360Z,59.25
2022-12-03T16:06:45.188Z,58.96
2022-12-03T16:09:47.073Z,59.24
2022-12-03T16:12:49.268Z,58.03
2022-12-03T16:15:51.256Z,57.58
2022-12-03T16:18:53.082Z,58.06
2022-12-03T16:21:54.876Z,58.40
2022-12-03T16:24:56.753Z,57.47
2022-12-03T16:27:58.596Z,58.27
2022-12-03T16:31:00.640Z,58.56
2022-12-03T16:34:02.659Z,57.78
2022-12-03T16:37:04.866Z,57.72
2022-12-03T16:40:07.311Z,59.96
2022-12-03T16:43:10.625Z,58.89
2022-12-03T16:46:15.403Z,58.33
2022-12-03T16:49:17.315Z,57.55
2022-12-03T16:52:19.107Z,59.21
2022-12-03T16:55:20.906Z,60.76
2022-12-03T16:58:22.745Z,62.11
2022-12-03T17:01:24.633Z,62.51
2022-12-03T17:04:26.477Z,60.47
2022-12-03T17:07:28.397Z,59.66
2022-12-03T17:10:30.353Z,58.02
2022-12-03T17:13:32.250Z,58.72
2022-12-03T17:16:34.218Z,60.45
2022-12-03T17:19:36.084Z,58.18
2022-12-03T17:22:38.017Z,57.77
2022-12-03T17:25:39.882Z,59.22
2022-12-03T17:28:41.738Z,58.77
2022-12-03T17:31:43.626Z,59.40
2022-12-03T17:34:45.496Z,57.84
2022-12-03T17:37:47.392Z,58.93
2022-12-03T17:40:49.235Z,59.10
2022-12-03T17:43:51.125Z,59.55
2022-12-03T17:46:53.099Z,58.66
2022-12-03T17:49:55.376Z,58.20
2022-12-03T17:52:57.982Z,58.04
2022-12-03T17:55:59.895Z,59.65
2022-12-03T17:59:01.732Z,59.76
2022-12-03T18:02:03.684Z,59.30
2022-12-03T18:05:05.717Z,60.37
2022-12-03T18:08:07.648Z,61.49
2022-12-03T18:11:09.503Z,59.64
2022-12-03T18:14:12.718Z,59.90
2022-12-03T18:17:14.593Z,64.22
2022-12-03T18:20:16.406Z,61.89
2022-12-03T18:23:18.327Z,63.61
2022-12-03T18:26:20.245Z,64.59
2022-12-03T18:29:22.059Z,63.99
2022-12-03T18:32:29.245Z,70.14
2022-12-03T18:35:31.631Z,69.35
2022-12-03T18:38:33.510Z,68.47
2022-12-03T18:41:35.783Z,69.96
2022-12-03T18:44:37.623Z,67.15
2022-12-03T18:47:39.582Z,65.15
2022-12-03T18:50:41.529Z,64.24
2022-12-03T18:53:43.576Z,65.32
2022-12-03T18:56:45.404Z,66.72
2022-12-03T18:59:47.317Z,64.34
2022-12-03T19:03:04.942Z,62.96
2022-12-03T19:06:12.919Z,64.22
2022-12-03T19:09:18.877Z,63.14
2022-12-03T19:12:20.712Z,63.87
2022-12-03T19:15:22.936Z,62.06
2022-12-03T19:18:24.923Z,60.44
2022-12-03T19:21:32.129Z,59.84
2022-12-03T19:24:35.439Z,60.37
2022-12-03T19:27:37.285Z,60.04
2022-12-03T19:30:39.183Z,60.67
2022-12-03T19:33:42.438Z,63.71
2022-12-03T19:36:44.321Z,61.72
2022-12-03T19:39:46.569Z,60.69
2022-12-03T19:42:48.409Z,62.08
2022-12-03T19:45:50.275Z,62.64
2022-12-03T19:48:53.642Z,62.34
2022-12-03T19:51:55.577Z,62.07
2022-12-03T19:54:57.404Z,65.73
2022-12-03T19:57:59.288Z,63.59
2022-12-03T20:01:11.436Z,63.29
2022-12-03T20:04:13.609Z,66.09
2022-12-03T20:07:15.461Z,66.50
2022-12-03T20:10:17.253Z,65.06
2022-12-03T20:13:19.071Z,63.77
2022-12-03T20:16:21.275Z,61.28
2022-12-03T20:19:23.120Z,61.66
2022-12-03T20:22:24.957Z,62.86
2022-12-03T20:25:26.816Z,62.60
2022-12-03T20:28:28.773Z,61.10
2022-12-03T20:31:31.157Z,61.67
2022-12-03T20:34:35.829Z,62.69
2022-12-03T20:37:37.769Z,62.24
2022-12-03T20:40:39.620Z,60.51
2022-12-03T20:43:41.715Z,61.41
2022-12-03T20:46:43.637Z,60.07
2022-12-03T20:49:45.906Z,60.28
2022-12-03T20:53:09.290Z,60.93
2022-12-03T20:56:09.756Z,60.14
2022-12-03T20:59:12.484Z,60.30
2022-12-03T21:02:14.468Z,60.89
2022-12-03T21:05:16.388Z,61.12
2022-12-03T21:08:33.998Z,60.79
2022-12-03T21:11:42.301Z,60.91
2022-12-03T21:14:44.306Z,61.87
2022-12-03T21:17:46.158Z,63.67
2022-12-03T21:20:48.046Z,63.39
2022-12-03T21:23:49.905Z,62.93
2022-12-03T21:26:51.741Z,61.92
2022-12-03T21:29:54.236Z,61.97
2022-12-03T21:32:56.262Z,63.47
2022-12-03T21:35:58.522Z,62.08
2022-12-03T21:39:00.527Z,64.14
2022-12-03T21:42:19.086Z,64.75
2022-12-03T21:45:25.074Z,63.92
2022-12-03T21:48:26.919Z,62.55
2022-12-03T21:51:28.751Z,62.47
2022-12-03T21:54:30.621Z,66.93
2022-12-03T21:57:34.816Z,64.23
2022-12-03T22:00:36.649Z,65.91
2022-12-03T22:03:38.491Z,67.60
2022-12-03T22:06:40.281Z,66.04
2022-12-03T22:09:42.120Z,64.35
2022-12-03T22:12:43.954Z,64.52
2022-12-03T22:15:45.870Z,62.28
2022-12-03T22:18:47.922Z,62.74
2022-12-03T22:21:49.761Z,62.86
2022-12-03T22:24:51.660Z,62.81
2022-12-03T22:27:53.479Z,63.02
2022-12-03T22:30:55.380Z,62.80
2022-12-03T22:33:57.283Z,61.50
2022-12-03T22:36:59.087Z,63.21
2022-12-03T22:40:00.900Z,63.69
2022-12-03T22:43:02.728Z,64.62
2022-12-03T22:46:04.969Z,63.17
2022-12-03T22:49:07.745Z,64.75
2022-12-03T22:52:09.863Z,65.24
2022-12-03T22:55:11.708Z,63.31
2022-12-03T22:58:13.551Z,65.86
2022-12-03T23:01:20.389Z,65.98
2022-12-03T23:04:22.215Z,63.55
2022-12-03T23:07:24.080Z,64.94
2022-12-03T23:10:30.893Z,62.26
2022-12-03T23:13:34.424Z,63.03
2022-12-03T23:16:36.403Z,62.64
2022-12-03T23:19:38.358Z,66.23
2022-12-03T23:22:40.712Z,63.89
2022-12-03T23:25:42.555Z,65.46
2022-12-03T23:28:44.987Z,61.86
2022-12-03T23:31:46.781Z,63.20
2022-12-03T23:34:48.778Z,62.61
2022-12-03T23:37:50.660Z,61.73
2022-12-03T23:40:53.051Z,63.89
2022-12-03T23:43:54.909Z,64.31
2022-12-03T23:46:56.771Z,64.62
2022-12-03T23:49:58.667Z,63.85
2022-12-03T23:53:00.491Z,65.24
2022-12-03T23:56:09.273Z,64.30
2022-12-03T23:59:11.106Z,63.09
